Time;durP1;ratioP1;P1;durP2;ratioP2;P2;SDS_P1;SDS_P2;PMS_P1;PMS_P2;Temp;Humidity;BMP_temperature;BMP_pressure;BME280_temperature;BME280_humidity;BME280_pressure;Samples;Min_cycle;Max_cycle;Signal;HPM_P1;HPM_P2
2022/11/23 00:03:29;;;;;;;28.20;13.00;;;;;;;3.92;85.82;100018.16;31417163;28;20048;-81
2022/11/23 00:18:31;;;;;;;29.10;13.50;;;;;;;3.88;83.61;100028.09;31425235;28;20394;-81
2022/11/23 00:33:33;;;;;;;32.10;11.63;;;;;;;3.92;80.27;100018.16;31429393;28;20059;-81
2022/11/23 00:48:36;;;;;;;24.73;10.93;;;;;;;3.98;80.81;100049.66;31421695;28;20049;-81
2022/11/23 01:03:42;;;;;;;23.83;8.50;;;;;;;3.86;77.29;100049.97;31429470;28;20045;-81
2022/11/23 01:18:44;;;;;;;;;;;;;;;3.69;76.16;100059.44;31403576;28;20053;-82
2022/11/23 01:33:46;;;;;;;35.73;9.57;;;;;;;3.63;76.37;100078.94;31431622;28;19971;-81
2022/11/23 01:48:59;;;;;;;17.87;9.50;;;;;;;3.90;77.53;100090.28;31456152;28;20045;-81
2022/11/23 02:04:02;;;;;;;27.53;10.80;;;;;;;4.01;77.03;100069.66;31462278;28;20053;-80
2022/11/23 02:19:11;;;;;;;24.07;10.27;;;;;;;3.90;78.34;100084.91;31451896;28;20083;-81
2022/11/23 02:34:13;;;;;;;25.83;9.93;;;;;;;4.09;80.11;100081.97;31458729;28;20053;-81
2022/11/23 02:49:15;;;;;;;29.33;10.67;;;;;;;4.08;79.20;100131.47;31443483;28;20044;-81
2022/11/23 03:04:16;;;;;;;27.50;11.87;;;;;;;4.16;79.07;100184.09;31442184;28;20048;-81
2022/11/23 03:19:26;;;;;;;33.73;12.43;;;;;;;4.16;80.06;100191.41;31427190;28;20049;-80
2022/11/23 03:34:28;;;;;;;29.60;11.37;;;;;;;4.01;80.46;100214.69;31423653;28;20056;-81
2022/11/23 03:49:30;;;;;;;24.33;9.67;;;;;;;3.96;80.55;100228.47;31443566;28;20052;-80
2022/11/23 04:04:33;;;;;;;38.17;14.97;;;;;;;4.05;82.15;100231.59;31434633;28;20143;-80
2022/11/23 04:19:35;;;;;;;41.07;14.97;;;;;;;4.05;81.81;100231.59;31423202;28;20074;-80
2022/11/23 04:34:38;;;;;;;41.10;14.07;;;;;;;3.92;81.40;100249.91;31428329;28;20051;-81
2022/11/23 04:49:39;;;;;;;40.50;14.63;;;;;;;3.76;82.42;100241.31;31426205;28;20052;-80
2022/11/23 05:04:41;;;;;;;48.33;15.80;;;;;;;3.71;82.11;100255.06;31400738;28;20053;-80
2022/11/23 05:19:44;;;;;;;44.40;15.63;;;;;;;3.57;83.16;100266.41;31413272;28;20049;-80
2022/11/23 05:34:46;;;;;;;37.27;15.63;;;;;;;3.74;83.34;100270.44;31419835;28;20055;-82
2022/11/23 05:49:48;;;;;;;57.17;16.37;;;;;;;4.05;82.53;100269.22;31420376;28;20053;-81
2022/11/23 06:04:50;;;;;;;52.10;15.40;;;;;;;4.36;81.76;100247.22;31408929;28;20110;-81
2022/11/23 06:19:52;;;;;;;39.23;14.33;;;;;;;4.25;82.30;100261.72;31417476;28;20052;-81
2022/11/23 06:34:54;;;;;;;43.07;14.10;;;;;;;4.22;83.24;100274.00;31423064;28;20052;-82
2022/11/23 06:50:01;;;;;;;46.93;14.97;;;;;;;4.16;83.32;100275.47;31432988;28;20048;-82
2022/11/23 07:05:03;;;;;;;49.60;16.03;;;;;;;4.33;83.83;100290.97;31439023;28;20076;-81
2022/11/23 07:20:08;;;;;;;51.03;14.40;;;;;;;4.26;83.52;100285.50;31431901;28;20498;-81
2022/11/23 07:35:11;;;;;;;47.27;14.53;;;;;;;4.33;83.62;100268.69;31426251;28;20407;-81
2022/11/23 07:50:13;;;;;;;55.87;17.67;;;;;;;4.73;84.13;100238.25;31421647;28;20135;-82
2022/11/23 08:05:16;;;;;;;53.87;16.13;;;;;;;5.23;82.20;100249.25;31430747;28;20423;-81
2022/11/23 08:20:18;;;;;;;46.20;16.77;;;;;;;5.46;80.42;100241.66;31415854;28;20052;-82
2022/11/23 08:35:20;;;;;;;52.93;18.73;;;;;;;5.53;80.74;100252.47;31414358;28;20056;-83
2022/11/23 08:50:22;;;;;;;48.87;16.60;;;;;;;5.80;79.71;100256.38;31444757;28;20055;-80
2022/11/23 09:05:26;;;;;;;44.27;15.37;;;;;;;5.59;81.48;100261.72;31434175;28;20087;-80
2022/11/23 09:20:29;;;;;;;62.40;19.20;;;;;;;5.55;83.17;100260.16;31412511;28;20049;-82
2022/11/23 09:35:31;;;;;;;55.23;17.10;;;;;;;5.58;82.87;100244.03;31410339;28;20498;-84
2022/11/23 09:50:47;;;;;;;44.13;16.27;;;;;;;5.71;85.03;100231.72;31423032;28;20057;-82
2022/11/23 10:06:10;;;;;;;43.17;15.97;;;;;;;6.08;79.47;100211.81;31435696;28;20509;-82
2022/11/23 10:21:18;;;;;;;47.27;18.40;;;;;;;7.36;73.35;100203.41;31460113;28;20063;-81
2022/11/23 10:36:23;;;;;;;55.00;21.37;;;;;;;7.87;71.75;100178.38;31439185;28;20095;-83
2022/11/23 10:51:31;;;;;;;45.67;18.27;;;;;;;10.79;60.45;100150.88;31442642;28;20521;-83
2022/11/23 11:06:34;;;;;;;32.80;15.70;;;;;;;11.67;55.34;100159.06;31437789;28;20076;-82
2022/11/23 11:21:40;;;;;;;33.93;16.37;;;;;;;13.01;55.71;100169.63;31435609;28;20103;-83
2022/11/23 11:36:49;;;;;;;32.40;15.53;;;;;;;13.34;50.51;100170.28;31419389;28;20121;-82
2022/11/23 11:52:17;;;;;;;25.97;10.57;;;;;;;14.46;54.60;100191.66;31433410;28;20422;-83
2022/11/23 12:07:54;;;;;;;20.17;10.63;;;;;;;13.43;56.15;100194.94;31426537;28;20084;-83
2022/11/23 12:23:15;;;;;;;15.90;9.37;;;;;;;14.04;54.63;100202.00;31422255;28;20052;-84
2022/11/23 16:41:10;;;;;;;55.97;23.50;;;;;;;5.03;100.00;100171.53;31836349;27;20447;-74
2022/11/23 16:56:19;;;;;;;62.47;23.43;;;;;;;4.81;97.04;100164.53;31795786;27;20151;-74
2022/11/23 17:11:24;;;;;;;58.60;23.40;;;;;;;4.73;96.39;100173.69;31763011;28;20122;-74
2022/11/23 17:26:47;;;;;;;71.60;26.50;;;;;;;4.61;95.69;100165.97;31670795;28;20056;-76
2022/11/23 17:41:49;;;;;;;68.17;25.07;;;;;;;4.59;95.23;100184.38;31624989;28;20435;-74
2022/11/23 17:56:51;;;;;;;61.90;24.60;;;;;;;4.61;95.37;100190.16;31650953;28;20067;-75
2022/11/23 18:11:53;;;;;;;68.10;25.17;;;;;;;4.61;96.19;100155.22;31628179;28;20052;-74
2022/11/23 18:43:14;;;;;;;63.73;24.93;;;;;;;4.49;96.68;100163.59;31602442;28;20177;-77
2022/11/23 18:58:16;;;;;;;102.53;37.63;;;;;;;4.58;96.93;100155.97;31673504;28;20477;-76
2022/11/23 19:13:19;;;;;;;68.07;26.80;;;;;;;4.44;96.71;100141.31;31701690;28;20052;-75
2022/11/23 19:28:21;;;;;;;62.90;25.70;;;;;;;4.34;97.27;100130.47;31615881;28;20055;-74
2022/11/23 19:43:23;;;;;;;65.03;24.00;;;;;;;4.27;98.92;100130.44;31622681;28;20043;-73
2022/11/23 19:58:25;;;;;;;64.13;24.50;;;;;;;3.85;97.79;100147.00;31612442;28;20055;-75
2022/11/23 20:13:28;;;;;;;66.87;23.80;;;;;;;3.77;98.51;100143.50;31618546;28;20044;-75
2022/11/23 20:28:29;;;;;;;53.60;22.07;;;;;;;3.80;98.51;100128.56;31598332;28;20075;-74
2022/11/23 20:43:31;;;;;;;60.33;21.17;;;;;;;4.02;100.00;100068.47;31618276;28;20055;-74
2022/11/23 20:58:34;;;;;;;62.93;22.87;;;;;;;4.10;100.00;100105.00;31617917;28;20044;-75
2022/11/23 21:28:57;;;;;;;50.23;18.87;;;;;;;4.50;100.00;100116.72;31632201;28;20060;-75
2022/11/23 21:43:58;;;;;;;45.70;15.97;;;;;;;4.45;99.57;100121.34;31637122;28;20078;-75
2022/11/23 21:59:01;;;;;;;44.00;16.60;;;;;;;4.56;99.16;100104.47;31632847;28;20519;-75
2022/11/23 22:14:06;;;;;;;39.00;16.47;;;;;;;4.43;98.28;100086.00;31633833;28;20583;-75
2022/11/23 22:29:08;;;;;;;37.53;15.70;;;;;;;4.72;97.89;100075.38;31622047;28;20492;-75
2022/11/23 22:44:10;;;;;;;38.37;16.57;;;;;;;4.84;96.30;100056.19;31636215;28;20075;-75
2022/11/23 22:59:12;;;;;;;37.70;15.07;;;;;;;5.11;96.99;100054.72;31618999;28;20062;-74
2022/11/23 23:14:14;;;;;;;33.93;15.87;;;;;;;5.36;97.00;100040.50;31620113;28;20048;-74
2022/11/23 23:29:16;;;;;;;37.77;14.17;;;;;;;5.46;95.42;100026.28;31605580;28;20118;-73
2022/11/23 23:44:18;;;;;;;32.60;14.57;;;;;;;5.47;94.38;100041.28;31630687;28;20060;-74
2022/11/23 23:59:22;;;;;;;29.57;14.10;;;;;;;5.57;94.67;100059.38;31619518;28;20505;-74
